Time;durP1;ratioP1;P1;durP2;ratioP2;P2;SDS_P1;SDS_P2;PMS_P1;PMS_P2;Temp;Humidity;BMP_temperature;BMP_pressure;BME280_temperature;BME280_humidity;BME280_pressure;Samples;Min_cycle;Max_cycle;Signal;HPM_P1;HPM_P2
2022/01/11 00:04:55;;;;;;;24.4;29;;;;;;;-1.4;66.5;99960;;;;
2022/01/11 00:14:55;;;;;;;24.4;29;;;;;;;-1.4;66.7;99970;;;;
2022/01/11 00:24:55;;;;;;;26.2;31.6;;;;;;;-1.4;65.7;99970;;;;
2022/01/11 00:35:58;;;;;;;26.2;31.6;;;;;;;-1.4;65.8;99980;;;;
2022/01/11 00:45:55;;;;;;;26.2;31.6;;;;;;;-1.3;65.7;99980;;;;
2022/01/11 00:55:55;;;;;;;24.7;28.3;;;;;;;-1.2;66.1;99980;;;;
2022/01/11 01:05:55;;;;;;;24.7;28.3;;;;;;;-1.3;66.1;99990;;;;
2022/01/11 01:16:55;;;;;;;18.3;23;;;;;;;-1.3;66.2;99990;;;;
2022/01/11 01:27:55;;;;;;;18.3;23;;;;;;;-1.3;65.7;100000;;;;
2022/01/11 01:38:55;;;;;;;18.3;23;;;;;;;-1.2;66.1;100000;;;;
2022/01/11 01:49:55;;;;;;;21.1;27.4;;;;;;;-1.3;66;100000;;;;
2022/01/11 01:59:55;;;;;;;21.1;27.4;;;;;;;-1.3;66.3;100010;;;;
2022/01/11 02:09:55;;;;;;;21.1;27.4;;;;;;;-1.3;66.9;100010;;;;
2022/01/11 02:20:56;;;;;;;19;22.7;;;;;;;-1.3;66.4;100010;;;;
2022/01/11 02:31:55;;;;;;;19;22.7;;;;;;;-1.2;66.6;100020;;;;
2022/01/11 02:41:56;;;;;;;19;22.7;;;;;;;-1.3;67.5;100030;;;;
2022/01/11 02:51:55;;;;;;;20.5;23;;;;;;;-1.1;67.4;100030;;;;
2022/01/11 03:02:55;;;;;;;20.5;23;;;;;;;-1.2;67.7;100030;;;;
2022/01/11 03:12:55;;;;;;;20.5;23;;;;;;;-1.1;67.8;100050;;;;
2022/01/11 03:23:57;;;;;;;16.6;21.4;;;;;;;-1.2;68.2;100060;;;;
2022/01/11 03:33:55;;;;;;;16.6;21.4;;;;;;;-1.4;68;100070;;;;
2022/01/11 03:44:55;;;;;;;16.6;21.4;;;;;;;-1.3;68.1;100070;;;;
2022/01/11 03:55:04;;;;;;;15.9;19.5;;;;;;;-1.3;68.5;100080;;;;
2022/01/11 04:05:55;;;;;;;15.9;19.5;;;;;;;-1.5;67;100100;;;;
2022/01/11 04:16:55;;;;;;;13.6;17.2;;;;;;;-1.8;66;100100;;;;
2022/01/11 04:26:55;;;;;;;13.6;17.2;;;;;;;-1.8;65.9;100100;;;;
2022/01/11 04:36:55;;;;;;;13.6;17.2;;;;;;;-2;65.6;100110;;;;
2022/01/11 04:47:56;;;;;;;15.8;21.7;;;;;;;-2.1;65.6;100120;;;;
2022/01/11 04:57:55;;;;;;;15.8;21.7;;;;;;;-2.3;65.8;100140;;;;
2022/01/11 05:07:55;;;;;;;15.8;21.7;;;;;;;-2.3;66.4;100140;;;;
2022/01/11 05:18:55;;;;;;;15.5;21.2;;;;;;;-2.4;66.6;100150;;;;
2022/01/11 05:28:55;;;;;;;15.5;21.2;;;;;;;-2.6;66.5;100150;;;;
2022/01/11 05:38:55;;;;;;;15.5;21.2;;;;;;;-2.7;67;100170;;;;
2022/01/11 05:49:55;;;;;;;15.3;20.1;;;;;;;-2.9;67.6;100200;;;;
2022/01/11 05:59:55;;;;;;;15.3;20.1;;;;;;;-2.9;67.7;100200;;;;
2022/01/11 06:09:55;;;;;;;15.3;20.1;;;;;;;-2.8;67.9;100210;;;;
2022/01/11 06:20:55;;;;;;;18.8;22.9;;;;;;;-2.8;68.1;100220;;;;
2022/01/11 06:30:55;;;;;;;18.8;22.9;;;;;;;-3;68.2;100240;;;;
2022/01/11 06:40:55;;;;;;;18.8;22.9;;;;;;;-3.2;69;100260;;;;
2022/01/11 06:51:55;;;;;;;17;21.5;;;;;;;-3.5;70;100260;;;;
2022/01/11 07:01:55;;;;;;;17;21.5;;;;;;;-3.2;70.2;100290;;;;
2022/01/11 07:11:55;;;;;;;17;21.5;;;;;;;-3.1;70.1;100310;;;;
2022/01/11 07:22:55;;;;;;;16.3;23.3;;;;;;;-2.7;69.8;100320;;;;
2022/01/11 07:32:55;;;;;;;16.3;23.3;;;;;;;-2.4;69.3;100320;;;;
2022/01/11 07:42:55;;;;;;;16.3;23.3;;;;;;;-2.2;68.7;100330;;;;
2022/01/11 07:53:55;;;;;;;16.9;21.4;;;;;;;-2;68.3;100340;;;;
2022/01/11 08:03:55;;;;;;;16.9;21.4;;;;;;;-1.9;67.9;100340;;;;
2022/01/11 08:13:55;;;;;;;16.9;21.4;;;;;;;-1.9;68.3;100350;;;;
2022/01/11 08:24:55;;;;;;;18.5;22.2;;;;;;;-1.4;67.2;100350;;;;
2022/01/11 08:35:55;;;;;;;18.5;22.2;;;;;;;-1.2;66.3;100360;;;;
2022/01/11 08:45:55;;;;;;;17.4;23.6;;;;;;;-1.3;66.4;100360;;;;
2022/01/11 08:55:55;;;;;;;17.4;23.6;;;;;;;-0.9;65.8;100370;;;;
2022/01/11 09:05:55;;;;;;;17.4;23.6;;;;;;;-0.6;65.1;100360;;;;
2022/01/11 09:15:55;;;;;;;12.3;13.7;;;;;;;-0.6;64.4;100360;;;;
2022/01/11 09:26:56;;;;;;;12.3;13.7;;;;;;;-0.6;64.1;100370;;;;
2022/01/11 09:36:55;;;;;;;12.3;13.7;;;;;;;-0.7;63.9;100380;;;;
2022/01/11 09:46:55;;;;;;;10.5;13.8;;;;;;;-0.5;64.4;100370;;;;
2022/01/11 09:57:55;;;;;;;10.5;13.8;;;;;;;-0.5;64;100350;;;;
2022/01/11 10:07:55;;;;;;;10.5;13.8;;;;;;;-0.5;63.9;100350;;;;
2022/01/11 10:17:55;;;;;;;14.7;19.9;;;;;;;-0.3;62.4;100360;;;;
2022/01/11 10:28:55;;;;;;;14.7;19.9;;;;;;;-0.5;63.1;100360;;;;
2022/01/11 10:39:55;;;;;;;14.7;19.9;;;;;;;0;62;100370;;;;
2022/01/11 10:49:55;;;;;;;13.2;16.8;;;;;;;0.4;62.2;100370;;;;
2022/01/11 10:59:56;;;;;;;13.2;16.8;;;;;;;0.3;61.3;100370;;;;
2022/01/11 11:09:55;;;;;;;13.2;16.8;;;;;;;1;60.2;100370;;;;
2022/01/11 11:20:55;;;;;;;14;18.2;;;;;;;1.3;59.3;100370;;;;
2022/01/11 11:30:55;;;;;;;14;18.2;;;;;;;1.3;59;100360;;;;
2022/01/11 11:41:55;;;;;;;14;18.2;;;;;;;1.7;58.2;100360;;;;
2022/01/11 11:51:55;;;;;;;26.7;31.1;;;;;;;1.7;58.5;100360;;;;
2022/01/11 12:01:58;;;;;;;26.7;31.1;;;;;;;1.4;57.7;100370;;;;
2022/01/11 12:12:55;;;;;;;26.7;31.1;;;;;;;0.1;60.3;100370;;;;
2022/01/11 12:23:55;;;;;;;12.6;18.2;;;;;;;-0.4;62.2;100370;;;;
2022/01/11 12:33:55;;;;;;;12.6;18.2;;;;;;;-0.2;61.9;100370;;;;
2022/01/11 12:45:52;;;;;;;22.3;26;;;;;;;-0.4;63.2;100380;;;;
2022/01/11 12:55:55;;;;;;;22.3;26;;;;;;;-0.2;62.8;100390;;;;
2022/01/11 13:05:56;;;;;;;22.3;26;;;;;;;0.3;61.9;100390;;;;
2022/01/11 13:15:55;;;;;;;15.5;19.3;;;;;;;0.4;60.9;100390;;;;
2022/01/11 13:26:55;;;;;;;15.5;19.3;;;;;;;0.5;60.3;100400;;;;
2022/01/11 13:36:55;;;;;;;15.5;19.3;;;;;;;0.2;61;100390;;;;
2022/01/11 13:46:55;;;;;;;16.1;22.4;;;;;;;0.1;61.1;100400;;;;
2022/01/11 13:56:55;;;;;;;16.1;22.4;;;;;;;0.2;60.8;100400;;;;
2022/01/11 14:06:56;;;;;;;16.1;22.4;;;;;;;0;61.1;100400;;;;
2022/01/11 14:17:55;;;;;;;17.5;21;;;;;;;-0.1;61.9;100410;;;;
2022/01/11 14:28:55;;;;;;;17.5;21;;;;;;;-0.4;63;100420;;;;
2022/01/11 14:38:55;;;;;;;17.5;21;;;;;;;-0.5;63.4;100420;;;;
2022/01/11 14:48:55;;;;;;;33.6;44;;;;;;;-0.7;63.3;100420;;;;
2022/01/11 14:59:55;;;;;;;33.6;44;;;;;;;-0.8;64;100420;;;;
2022/01/11 15:09:55;;;;;;;33.6;44;;;;;;;-0.9;64.4;100420;;;;
2022/01/11 15:19:58;;;;;;;22.8;27.1;;;;;;;-1.1;64.5;100420;;;;
2022/01/11 15:30:55;;;;;;;22.8;27.1;;;;;;;-1.6;64.6;100420;;;;
2022/01/11 15:40:59;;;;;;;22.8;27.1;;;;;;;-2.1;65.7;100420;;;;
2022/01/11 15:50:55;;;;;;;33.5;40.8;;;;;;;-2.5;67;100430;;;;
2022/01/11 16:01:56;;;;;;;33.5;40.8;;;;;;;-2.9;67.9;100440;;;;
2022/01/11 16:12:55;;;;;;;33.5;40.8;;;;;;;-3.2;69.2;100440;;;;
2022/01/11 16:22:55;;;;;;;33.5;43.5;;;;;;;-3.4;70;100450;;;;
2022/01/11 16:33:56;;;;;;;33.5;43.5;;;;;;;-3.3;70.8;100460;;;;
2022/01/11 16:43:55;;;;;;;49.1;64.5;;;;;;;-3.2;71.1;100460;;;;
2022/01/11 16:54:55;;;;;;;49.1;64.5;;;;;;;-3.2;71.3;100480;;;;
2022/01/11 17:05:56;;;;;;;49.1;64.5;;;;;;;-3.3;71.7;100480;;;;
2022/01/11 17:15:55;;;;;;;54.1;72.1;;;;;;;-3.4;72.7;100490;;;;
2022/01/11 17:26:55;;;;;;;54.1;72.1;;;;;;;-3.6;73.1;100490;;;;
2022/01/11 17:36:56;;;;;;;54.1;72.1;;;;;;;-3.7;73.6;100500;;;;
2022/01/11 17:47:56;;;;;;;65.6;87.7;;;;;;;-3.8;73.8;100510;;;;
2022/01/11 17:58:57;;;;;;;65.6;87.7;;;;;;;-3.6;74.7;100500;;;;
2022/01/11 18:08:57;;;;;;;65.6;87.7;;;;;;;-3.3;75;100510;;;;
2022/01/11 18:18:56;;;;;;;51.4;65.3;;;;;;;-3.1;75.4;100520;;;;
2022/01/11 18:29:55;;;;;;;51.4;65.3;;;;;;;-2.7;74.8;100530;;;;
2022/01/11 18:39:55;;;;;;;51.4;65.3;;;;;;;-2.7;75;100540;;;;
2022/01/11 18:50:55;;;;;;;97.4;118.4;;;;;;;-2.7;75.3;100550;;;;
2022/01/11 19:01:56;;;;;;;97.4;118.4;;;;;;;-2.8;75.6;100570;;;;
2022/01/11 19:11:59;;;;;;;97.4;118.4;;;;;;;-3;76.8;100570;;;;
2022/01/11 19:21:56;;;;;;;66.1;87.7;;;;;;;-3.5;78;100580;;;;
2022/01/11 19:31:57;;;;;;;66.1;87.7;;;;;;;-3.3;78;100580;;;;
2022/01/11 19:42:56;;;;;;;66.9;85.2;;;;;;;-3.5;78.9;100580;;;;
2022/01/11 19:53:56;;;;;;;66.9;85.2;;;;;;;-3.2;78.5;100580;;;;
2022/01/11 20:04:56;;;;;;;66.9;85.2;;;;;;;-3.3;78.5;100580;;;;
2022/01/11 20:15:56;;;;;;;66.4;80.8;;;;;;;-3.5;79.1;100570;;;;
2022/01/11 20:35:56;;;;;;;66.4;80.8;;;;;;;-3.4;77.7;100570;;;;
2022/01/11 20:46:56;;;;;;;64.8;84.5;;;;;;;-3.2;77.3;100560;;;;
2022/01/11 20:56:56;;;;;;;64.8;84.5;;;;;;;-3.3;77;100570;;;;
2022/01/11 21:07:56;;;;;;;64.8;84.5;;;;;;;-3.4;77;100570;;;;
2022/01/11 21:28:56;;;;;;;66.2;84.9;;;;;;;-3.3;76.9;100560;;;;
2022/01/11 21:38:56;;;;;;;66.2;84.9;;;;;;;-3.3;76.8;100570;;;;
2022/01/11 21:48:56;;;;;;;50.9;62.3;;;;;;;-3.2;76.8;100560;;;;
2022/01/11 21:59:56;;;;;;;50.9;62.3;;;;;;;-3.3;76.8;100570;;;;
2022/01/11 22:10:56;;;;;;;50.9;62.3;;;;;;;-3.4;77;100560;;;;
2022/01/11 22:20:56;;;;;;;52;63.8;;;;;;;-3.2;76.9;100570;;;;
2022/01/11 22:31:56;;;;;;;52;63.8;;;;;;;-3;76;100570;;;;
2022/01/11 22:42:56;;;;;;;62.4;75.3;;;;;;;-3;75.6;100580;;;;
2022/01/11 22:52:56;;;;;;;62.4;75.3;;;;;;;-3.2;76;100580;;;;
2022/01/11 23:02:56;;;;;;;62.4;75.3;;;;;;;-3.1;75.6;100580;;;;
2022/01/11 23:15:00;;;;;;;57.5;67.7;;;;;;;-3;75.4;100570;;;;
2022/01/11 23:23:56;;;;;;;57.5;67.7;;;;;;;-3;74.9;100570;;;;
2022/01/11 23:33:59;;;;;;;57.5;67.7;;;;;;;-3.2;75;100580;;;;
2022/01/11 23:45:50;;;;;;;36;42.3;;;;;;;-3.1;75;100580;;;;
2022/01/11 23:55:56;;;;;;;36;42.3;;;;;;;-3.3;75.2;100580;;;;
